K7BM

Cottonwood Pass Airport

Cottonwood Pass, Colorado, USA
METAR K7BM 181730Z AUTO 26010G19KT 220V320 10SM SCT080 22/00 A3042 RMK AO2
Observed Flight Rules
Sep-18 @ 17:30 UTC (27 minutes ago) Visual Flight Rules
Wind Visibility Clouds
260° at 10 knots
 Gusting to 19 knots
10 miles
  • Scattered at 8,000' AGL
Temperatures Readings
Current 22°C / 72°F
Dewpoint 0°C / 32°F
Humidity 23%
Altimeter 30.42" Hg
Pressure 1030 hPa
Elevation 2995
METAR K7BM 181730Z AUTO 26010G19KT 220V320 10SM SCT080 22/00 A3042 RMK AO2
Observed Flight Rules
Sep-18 @ 17:30 UTC
(27 minutes ago)
VFR
Wind Visibility
260° at 10 knots
 Gusting to 19 knots
10 miles
Clouds
  • Scattered at 8,000' AGL
Temperature Dewpoint
22°C / 72°F 0°C / 32°F
Humidity Altimeter Pressure
23% 30.42" Hg 1030 hPa